sensor_id;sensor_type;location;lat;lon;timestamp;P1;durP1;ratioP1;P2;durP2;ratioP2
6243;SDS011;3155;49.940;8.450;2023-09-07T00:00:35;3.55;;;3.17;;
6243;SDS011;3155;49.940;8.450;2023-09-07T00:03:02;3.33;;;3.10;;
6243;SDS011;3155;49.940;8.450;2023-09-07T00:05:31;5.05;;;4.07;;
6243;SDS011;3155;49.940;8.450;2023-09-07T00:07:58;26.25;;;24.35;;
6243;SDS011;3155;49.940;8.450;2023-09-07T00:10:25;93.30;;;86.68;;
6243;SDS011;3155;49.940;8.450;2023-09-07T00:13:04;5.63;;;5.18;;
6243;SDS011;3155;49.940;8.450;2023-09-07T00:15:35;34.83;;;32.38;;
6243;SDS011;3155;49.940;8.450;2023-09-07T00:18:02;255.27;;;234.02;;
6243;SDS011;3155;49.940;8.450;2023-09-07T00:20:30;145.75;;;133.77;;
6243;SDS011;3155;49.940;8.450;2023-09-07T00:22:59;233.43;;;213.98;;
6243;SDS011;3155;49.940;8.450;2023-09-07T00:25:29;46.47;;;42.80;;
6243;SDS011;3155;49.940;8.450;2023-09-07T00:27:56;3.73;;;3.43;;
6243;SDS011;3155;49.940;8.450;2023-09-07T00:30:23;3.83;;;3.50;;
6243;SDS011;3155;49.940;8.450;2023-09-07T00:32:52;4.43;;;4.00;;
6243;SDS011;3155;49.940;8.450;2023-09-07T00:35:19;6.10;;;4.20;;
6243;SDS011;3155;49.940;8.450;2023-09-07T00:37:46;9.25;;;8.15;;
6243;SDS011;3155;49.940;8.450;2023-09-07T00:40:13;13.00;;;11.70;;
6243;SDS011;3155;49.940;8.450;2023-09-07T00:42:40;9.90;;;8.90;;
6243;SDS011;3155;49.940;8.450;2023-09-07T00:45:08;4.20;;;3.70;;
6243;SDS011;3155;49.940;8.450;2023-09-07T00:47:37;5.22;;;4.82;;
6243;SDS011;3155;49.940;8.450;2023-09-07T00:50:05;6.13;;;5.53;;
6243;SDS011;3155;49.940;8.450;2023-09-07T00:52:33;6.90;;;6.40;;
6243;SDS011;3155;49.940;8.450;2023-09-07T00:55:01;590.03;;;531.05;;
6243;SDS011;3155;49.940;8.450;2023-09-07T00:57:30;251.18;;;230.05;;
6243;SDS011;3155;49.940;8.450;2023-09-07T00:59:57;447.85;;;404.67;;
6243;SDS011;3155;49.940;8.450;2023-09-07T01:02:24;707.25;;;604.13;;
6243;SDS011;3155;49.940;8.450;2023-09-07T01:04:52;786.13;;;615.83;;
6243;SDS011;3155;49.940;8.450;2023-09-07T01:07:28;5.60;;;3.47;;
6243;SDS011;3155;49.940;8.450;2023-09-07T01:09:59;4.53;;;4.13;;
6243;SDS011;3155;49.940;8.450;2023-09-07T01:12:30;382.02;;;345.27;;
6243;SDS011;3155;49.940;8.450;2023-09-07T01:14:57;615.03;;;551.90;;
6243;SDS011;3155;49.940;8.450;2023-09-07T01:17:25;470.00;;;422.27;;
6243;SDS011;3155;49.940;8.450;2023-09-07T01:19:59;648.33;;;585.95;;
6243;SDS011;3155;49.940;8.450;2023-09-07T01:22:31;452.85;;;411.52;;
6243;SDS011;3155;49.940;8.450;2023-09-07T01:24:59;492.17;;;445.67;;
6243;SDS011;3155;49.940;8.450;2023-09-07T01:27:34;128.43;;;119.40;;
6243;SDS011;3155;49.940;8.450;2023-09-07T01:30:02;41.45;;;38.55;;
6243;SDS011;3155;49.940;8.450;2023-09-07T01:32:29;11.07;;;10.27;;
6243;SDS011;3155;49.940;8.450;2023-09-07T01:34:57;4.50;;;4.10;;
6243;SDS011;3155;49.940;8.450;2023-09-07T01:37:24;4.20;;;3.65;;
6243;SDS011;3155;49.940;8.450;2023-09-07T01:39:52;3.63;;;3.33;;
6243;SDS011;3155;49.940;8.450;2023-09-07T01:42:19;3.77;;;3.40;;
6243;SDS011;3155;49.940;8.450;2023-09-07T01:44:48;4.60;;;3.63;;
6243;SDS011;3155;49.940;8.450;2023-09-07T01:47:15;4.22;;;3.75;;
6243;SDS011;3155;49.940;8.450;2023-09-07T01:49:43;4.00;;;3.15;;
6243;SDS011;3155;49.940;8.450;2023-09-07T01:52:10;3.67;;;3.40;;
6243;SDS011;3155;49.940;8.450;2023-09-07T01:54:37;5.22;;;3.50;;
6243;SDS011;3155;49.940;8.450;2023-09-07T01:57:04;18.17;;;16.70;;
6243;SDS011;3155;49.940;8.450;2023-09-07T01:59:31;302.63;;;273.58;;
6243;SDS011;3155;49.940;8.450;2023-09-07T02:01:59;481.80;;;436.58;;
6243;SDS011;3155;49.940;8.450;2023-09-07T02:04:28;641.35;;;579.85;;
6243;SDS011;3155;49.940;8.450;2023-09-07T02:06:55;618.17;;;559.58;;
6243;SDS011;3155;49.940;8.450;2023-09-07T02:09:23;614.03;;;558.30;;
6243;SDS011;3155;49.940;8.450;2023-09-07T02:11:50;75.75;;;70.22;;
6243;SDS011;3155;49.940;8.450;2023-09-07T02:14:17;60.78;;;55.45;;
6243;SDS011;3155;49.940;8.450;2023-09-07T02:16:44;655.72;;;587.88;;
6243;SDS011;3155;49.940;8.450;2023-09-07T02:19:11;841.20;;;631.85;;
6243;SDS011;3155;49.940;8.450;2023-09-07T02:21:39;786.63;;;630.20;;
6243;SDS011;3155;49.940;8.450;2023-09-07T02:24:06;835.10;;;642.63;;
6243;SDS011;3155;49.940;8.450;2023-09-07T02:26:35;775.58;;;622.85;;
6243;SDS011;3155;49.940;8.450;2023-09-07T02:29:09;771.38;;;630.83;;
6243;SDS011;3155;49.940;8.450;2023-09-07T02:31:50;815.65;;;638.90;;
6243;SDS011;3155;49.940;8.450;2023-09-07T02:34:17;825.42;;;641.22;;
6243;SDS011;3155;49.940;8.450;2023-09-07T02:36:45;817.22;;;638.67;;
6243;SDS011;3155;49.940;8.450;2023-09-07T02:39:15;819.85;;;632.80;;
6243;SDS011;3155;49.940;8.450;2023-09-07T02:41:42;799.85;;;571.60;;
6243;SDS011;3155;49.940;8.450;2023-09-07T02:44:12;798.03;;;563.83;;
6243;SDS011;3155;49.940;8.450;2023-09-07T02:46:39;786.47;;;551.38;;
6243;SDS011;3155;49.940;8.450;2023-09-07T02:49:06;789.42;;;590.10;;
6243;SDS011;3155;49.940;8.450;2023-09-07T02:51:33;785.00;;;619.83;;
6243;SDS011;3155;49.940;8.450;2023-09-07T02:54:04;780.63;;;593.28;;
6243;SDS011;3155;49.940;8.450;2023-09-07T02:56:31;781.07;;;571.03;;
6243;SDS011;3155;49.940;8.450;2023-09-07T02:58:58;785.55;;;585.22;;
6243;SDS011;3155;49.940;8.450;2023-09-07T03:01:31;785.77;;;593.07;;
6243;SDS011;3155;49.940;8.450;2023-09-07T03:03:59;776.13;;;562.72;;
6243;SDS011;3155;49.940;8.450;2023-09-07T03:06:26;778.08;;;595.88;;
6243;SDS011;3155;49.940;8.450;2023-09-07T03:08:53;835.65;;;592.08;;
6243;SDS011;3155;49.940;8.450;2023-09-07T03:11:20;278.95;;;248.45;;
6243;SDS011;3155;49.940;8.450;2023-09-07T03:13:47;643.08;;;583.05;;
6243;SDS011;3155;49.940;8.450;2023-09-07T03:16:14;182.32;;;166.80;;
6243;SDS011;3155;49.940;8.450;2023-09-07T03:18:42;724.40;;;658.08;;
6243;SDS011;3155;49.940;8.450;2023-09-07T03:21:09;777.78;;;523.28;;
6243;SDS011;3155;49.940;8.450;2023-09-07T03:23:36;757.60;;;491.95;;
6243;SDS011;3155;49.940;8.450;2023-09-07T03:26:13;781.00;;;561.03;;
6243;SDS011;3155;49.940;8.450;2023-09-07T03:28:43;799.55;;;574.33;;
6243;SDS011;3155;49.940;8.450;2023-09-07T03:31:10;782.63;;;538.38;;
6243;SDS011;3155;49.940;8.450;2023-09-07T03:33:41;769.53;;;561.08;;
6243;SDS011;3155;49.940;8.450;2023-09-07T03:36:08;781.97;;;528.42;;
6243;SDS011;3155;49.940;8.450;2023-09-07T03:38:36;766.17;;;524.95;;
6243;SDS011;3155;49.940;8.450;2023-09-07T03:41:03;801.03;;;615.67;;
6243;SDS011;3155;49.940;8.450;2023-09-07T03:43:34;781.58;;;592.30;;
6243;SDS011;3155;49.940;8.450;2023-09-07T03:46:01;779.90;;;607.97;;
6243;SDS011;3155;49.940;8.450;2023-09-07T03:48:28;771.28;;;628.05;;
6243;SDS011;3155;49.940;8.450;2023-09-07T03:50:56;854.50;;;647.85;;
6243;SDS011;3155;49.940;8.450;2023-09-07T03:53:23;841.50;;;660.10;;
6243;SDS011;3155;49.940;8.450;2023-09-07T03:55:50;820.67;;;662.63;;
6243;SDS011;3155;49.940;8.450;2023-09-07T03:58:17;822.30;;;656.00;;
6243;SDS011;3155;49.940;8.450;2023-09-07T04:00:44;811.92;;;654.60;;
6243;SDS011;3155;49.940;8.450;2023-09-07T04:03:15;810.77;;;665.77;;
6243;SDS011;3155;49.940;8.450;2023-09-07T04:05:42;802.65;;;674.97;;
6243;SDS011;3155;49.940;8.450;2023-09-07T04:08:16;795.88;;;680.75;;
6243;SDS011;3155;49.940;8.450;2023-09-07T04:10:44;797.58;;;682.22;;
6243;SDS011;3155;49.940;8.450;2023-09-07T04:13:11;785.93;;;677.73;;
6243;SDS011;3155;49.940;8.450;2023-09-07T04:15:44;783.00;;;674.35;;
6243;SDS011;3155;49.940;8.450;2023-09-07T04:18:12;806.60;;;678.70;;
6243;SDS011;3155;49.940;8.450;2023-09-07T04:20:41;800.55;;;680.20;;
6243;SDS011;3155;49.940;8.450;2023-09-07T04:23:08;804.78;;;684.70;;
6243;SDS011;3155;49.940;8.450;2023-09-07T04:25:36;792.55;;;680.35;;
6243;SDS011;3155;49.940;8.450;2023-09-07T04:28:05;814.13;;;650.17;;
6243;SDS011;3155;49.940;8.450;2023-09-07T04:30:33;829.05;;;633.83;;
6243;SDS011;3155;49.940;8.450;2023-09-07T04:33:04;841.05;;;649.78;;
6243;SDS011;3155;49.940;8.450;2023-09-07T04:35:32;833.93;;;666.63;;
6243;SDS011;3155;49.940;8.450;2023-09-07T04:37:59;3.40;;;3.07;;
6243;SDS011;3155;49.940;8.450;2023-09-07T04:40:27;3.53;;;3.00;;
6243;SDS011;3155;49.940;8.450;2023-09-07T04:42:54;3.72;;;2.85;;
6243;SDS011;3155;49.940;8.450;2023-09-07T04:45:21;19.42;;;14.55;;
6243;SDS011;3155;49.940;8.450;2023-09-07T04:47:49;42.38;;;38.42;;
6243;SDS011;3155;49.940;8.450;2023-09-07T04:50:17;3.40;;;3.10;;
6243;SDS011;3155;49.940;8.450;2023-09-07T04:52:44;3.50;;;3.10;;
6243;SDS011;3155;49.940;8.450;2023-09-07T04:55:16;3.10;;;2.90;;
6243;SDS011;3155;49.940;8.450;2023-09-07T04:57:43;3.20;;;2.90;;
6243;SDS011;3155;49.940;8.450;2023-09-07T05:00:14;3.88;;;3.00;;
6243;SDS011;3155;49.940;8.450;2023-09-07T05:02:41;5.28;;;3.05;;
6243;SDS011;3155;49.940;8.450;2023-09-07T05:05:09;174.27;;;159.77;;
6243;SDS011;3155;49.940;8.450;2023-09-07T05:07:36;858.10;;;629.72;;
6243;SDS011;3155;49.940;8.450;2023-09-07T05:10:04;829.85;;;620.80;;
6243;SDS011;3155;49.940;8.450;2023-09-07T05:12:33;826.47;;;635.83;;
6243;SDS011;3155;49.940;8.450;2023-09-07T05:15:00;872.22;;;635.10;;
6243;SDS011;3155;49.940;8.450;2023-09-07T05:17:27;846.15;;;576.45;;
6243;SDS011;3155;49.940;8.450;2023-09-07T05:19:54;846.50;;;618.35;;
6243;SDS011;3155;49.940;8.450;2023-09-07T05:22:22;847.47;;;631.85;;
6243;SDS011;3155;49.940;8.450;2023-09-07T05:24:49;850.88;;;647.28;;
6243;SDS011;3155;49.940;8.450;2023-09-07T05:27:16;843.27;;;651.80;;
6243;SDS011;3155;49.940;8.450;2023-09-07T05:29:43;841.10;;;644.70;;
6243;SDS011;3155;49.940;8.450;2023-09-07T05:32:10;838.00;;;651.63;;
6243;SDS011;3155;49.940;8.450;2023-09-07T05:34:37;852.67;;;666.47;;
6243;SDS011;3155;49.940;8.450;2023-09-07T05:37:05;843.03;;;668.35;;
6243;SDS011;3155;49.940;8.450;2023-09-07T05:39:32;834.70;;;651.40;;
6243;SDS011;3155;49.940;8.450;2023-09-07T05:41:59;814.87;;;571.20;;
6243;SDS011;3155;49.940;8.450;2023-09-07T05:44:26;805.40;;;558.75;;
6243;SDS011;3155;49.940;8.450;2023-09-07T05:46:54;814.97;;;581.20;;
6243;SDS011;3155;49.940;8.450;2023-09-07T05:49:21;817.40;;;620.25;;
6243;SDS011;3155;49.940;8.450;2023-09-07T05:51:48;818.50;;;634.97;;
6243;SDS011;3155;49.940;8.450;2023-09-07T05:54:15;824.88;;;645.40;;
6243;SDS011;3155;49.940;8.450;2023-09-07T05:56:43;823.47;;;643.40;;
6243;SDS011;3155;49.940;8.450;2023-09-07T05:59:10;798.42;;;561.03;;
6243;SDS011;3155;49.940;8.450;2023-09-07T06:01:38;816.05;;;575.00;;
6243;SDS011;3155;49.940;8.450;2023-09-07T06:04:08;797.70;;;587.47;;
6243;SDS011;3155;49.940;8.450;2023-09-07T06:06:36;838.53;;;593.08;;
6243;SDS011;3155;49.940;8.450;2023-09-07T06:09:03;838.05;;;631.40;;
6243;SDS011;3155;49.940;8.450;2023-09-07T06:11:30;840.40;;;626.27;;
6243;SDS011;3155;49.940;8.450;2023-09-07T06:13:58;852.58;;;662.95;;
6243;SDS011;3155;49.940;8.450;2023-09-07T06:16:25;863.67;;;674.15;;
6243;SDS011;3155;49.940;8.450;2023-09-07T06:18:53;853.37;;;668.73;;
6243;SDS011;3155;49.940;8.450;2023-09-07T06:21:20;869.97;;;677.40;;
6243;SDS011;3155;49.940;8.450;2023-09-07T06:23:50;865.38;;;675.08;;
6243;SDS011;3155;49.940;8.450;2023-09-07T06:26:17;984.13;;;785.22;;
6243;SDS011;3155;49.940;8.450;2023-09-07T06:28:47;957.03;;;757.40;;
6243;SDS011;3155;49.940;8.450;2023-09-07T06:31:17;935.88;;;744.10;;
6243;SDS011;3155;49.940;8.450;2023-09-07T06:33:45;996.97;;;826.35;;
6243;SDS011;3155;49.940;8.450;2023-09-07T06:36:12;977.83;;;816.90;;
6243;SDS011;3155;49.940;8.450;2023-09-07T06:38:39;1025.10;;;923.80;;
6243;SDS011;3155;49.940;8.450;2023-09-07T06:41:06;1015.42;;;845.72;;
6243;SDS011;3155;49.940;8.450;2023-09-07T06:43:35;1013.03;;;865.38;;
6243;SDS011;3155;49.940;8.450;2023-09-07T06:46:05;1005.05;;;860.53;;
6243;SDS011;3155;49.940;8.450;2023-09-07T06:48:34;1008.38;;;861.33;;
6243;SDS011;3155;49.940;8.450;2023-09-07T06:51:04;27.95;;;25.75;;
6243;SDS011;3155;49.940;8.450;2023-09-07T06:53:32;37.97;;;35.28;;
6243;SDS011;3155;49.940;8.450;2023-09-07T06:56:19;748.15;;;683.38;;
6243;SDS011;3155;49.940;8.450;2023-09-07T06:58:46;1092.82;;;974.00;;
6243;SDS011;3155;49.940;8.450;2023-09-07T07:01:13;1064.47;;;951.00;;
6243;SDS011;3155;49.940;8.450;2023-09-07T07:03:41;1001.97;;;896.92;;
6243;SDS011;3155;49.940;8.450;2023-09-07T07:06:09;321.98;;;293.10;;
6243;SDS011;3155;49.940;8.450;2023-09-07T07:08:36;188.18;;;170.73;;
6243;SDS011;3155;49.940;8.450;2023-09-07T07:11:06;7.53;;;7.10;;
6243;SDS011;3155;49.940;8.450;2023-09-07T07:13:34;790.38;;;721.67;;
6243;SDS011;3155;49.940;8.450;2023-09-07T07:16:03;982.92;;;888.25;;
6243;SDS011;3155;49.940;8.450;2023-09-07T07:18:31;35.70;;;33.08;;
6243;SDS011;3155;49.940;8.450;2023-09-07T07:21:01;26.90;;;24.65;;
6243;SDS011;3155;49.940;8.450;2023-09-07T07:23:28;18.15;;;16.83;;
6243;SDS011;3155;49.940;8.450;2023-09-07T07:25:56;455.53;;;415.00;;
6243;SDS011;3155;49.940;8.450;2023-09-07T07:28:26;788.70;;;719.70;;
6243;SDS011;3155;49.940;8.450;2023-09-07T07:30:53;976.08;;;874.28;;
6243;SDS011;3155;49.940;8.450;2023-09-07T07:33:20;145.48;;;134.15;;
6243;SDS011;3155;49.940;8.450;2023-09-07T07:35:48;544.72;;;493.40;;
6243;SDS011;3155;49.940;8.450;2023-09-07T07:38:15;522.88;;;474.55;;
6243;SDS011;3155;49.940;8.450;2023-09-07T07:40:45;950.37;;;849.90;;
6243;SDS011;3155;49.940;8.450;2023-09-07T07:43:13;980.97;;;831.53;;
6243;SDS011;3155;49.940;8.450;2023-09-07T07:45:42;991.50;;;823.38;;
6243;SDS011;3155;49.940;8.450;2023-09-07T07:48:09;998.08;;;833.15;;
6243;SDS011;3155;49.940;8.450;2023-09-07T07:50:37;983.65;;;821.58;;
6243;SDS011;3155;49.940;8.450;2023-09-07T07:53:08;976.65;;;811.38;;
6243;SDS011;3155;49.940;8.450;2023-09-07T07:55:36;975.75;;;810.05;;
6243;SDS011;3155;49.940;8.450;2023-09-07T07:58:05;978.35;;;813.15;;
6243;SDS011;3155;49.940;8.450;2023-09-07T08:00:37;815.70;;;725.63;;
6243;SDS011;3155;49.940;8.450;2023-09-07T08:03:04;928.93;;;833.67;;
6243;SDS011;3155;49.940;8.450;2023-09-07T08:05:33;3.25;;;2.55;;
6243;SDS011;3155;49.940;8.450;2023-09-07T08:08:01;2.80;;;2.50;;
6243;SDS011;3155;49.940;8.450;2023-09-07T08:10:29;379.65;;;347.75;;
6243;SDS011;3155;49.940;8.450;2023-09-07T08:12:57;3.55;;;3.25;;
6243;SDS011;3155;49.940;8.450;2023-09-07T08:15:25;23.10;;;21.27;;
6243;SDS011;3155;49.940;8.450;2023-09-07T08:17:52;82.75;;;76.80;;
6243;SDS011;3155;49.940;8.450;2023-09-07T08:20:20;587.83;;;537.40;;
6243;SDS011;3155;49.940;8.450;2023-09-07T08:22:47;1073.38;;;973.00;;
6243;SDS011;3155;49.940;8.450;2023-09-07T08:25:14;820.85;;;754.33;;
6243;SDS011;3155;49.940;8.450;2023-09-07T08:27:42;269.98;;;248.90;;
6243;SDS011;3155;49.940;8.450;2023-09-07T08:30:11;919.17;;;841.33;;
6243;SDS011;3155;49.940;8.450;2023-09-07T08:32:38;721.42;;;660.05;;
6243;SDS011;3155;49.940;8.450;2023-09-07T08:35:06;285.52;;;260.95;;
6243;SDS011;3155;49.940;8.450;2023-09-07T08:37:35;672.13;;;611.15;;
6243;SDS011;3155;49.940;8.450;2023-09-07T08:40:02;56.83;;;51.67;;
6243;SDS011;3155;49.940;8.450;2023-09-07T08:42:30;224.40;;;203.73;;
6243;SDS011;3155;49.940;8.450;2023-09-07T08:44:57;575.92;;;524.88;;
6243;SDS011;3155;49.940;8.450;2023-09-07T08:47:27;155.77;;;142.50;;
6243;SDS011;3155;49.940;8.450;2023-09-07T08:49:56;2.75;;;2.60;;
6243;SDS011;3155;49.940;8.450;2023-09-07T08:52:24;15.83;;;11.97;;
6243;SDS011;3155;49.940;8.450;2023-09-07T08:54:52;4.00;;;2.90;;
6243;SDS011;3155;49.940;8.450;2023-09-07T08:57:19;2.72;;;2.53;;
6243;SDS011;3155;49.940;8.450;2023-09-07T08:59:49;368.30;;;336.00;;
6243;SDS011;3155;49.940;8.450;2023-09-07T09:02:16;26.65;;;24.77;;
6243;SDS011;3155;49.940;8.450;2023-09-07T09:04:43;77.03;;;70.65;;
6243;SDS011;3155;49.940;8.450;2023-09-07T09:07:11;1017.83;;;924.92;;
6243;SDS011;3155;49.940;8.450;2023-09-07T09:09:44;895.60;;;821.97;;
6243;SDS011;3155;49.940;8.450;2023-09-07T09:12:11;730.67;;;669.20;;
6243;SDS011;3155;49.940;8.450;2023-09-07T09:14:41;515.00;;;470.20;;
6243;SDS011;3155;49.940;8.450;2023-09-07T09:17:13;147.52;;;134.57;;
6243;SDS011;3155;49.940;8.450;2023-09-07T09:19:43;9.07;;;8.27;;
6243;SDS011;3155;49.940;8.450;2023-09-07T09:22:11;2.50;;;2.40;;
6243;SDS011;3155;49.940;8.450;2023-09-07T09:24:38;846.70;;;771.55;;
6243;SDS011;3155;49.940;8.450;2023-09-07T09:27:05;1103.47;;;999.90;;
6243;SDS011;3155;49.940;8.450;2023-09-07T09:29:33;1112.80;;;999.90;;
6243;SDS011;3155;49.940;8.450;2023-09-07T09:32:02;819.42;;;748.05;;
6243;SDS011;3155;49.940;8.450;2023-09-07T09:34:33;750.88;;;687.40;;
6243;SDS011;3155;49.940;8.450;2023-09-07T09:37:01;1011.65;;;913.03;;
6243;SDS011;3155;49.940;8.450;2023-09-07T09:39:38;275.95;;;252.52;;
6243;SDS011;3155;49.940;8.450;2023-09-07T09:42:07;1010.83;;;922.70;;
6243;SDS011;3155;49.940;8.450;2023-09-07T09:44:35;422.90;;;387.73;;
6243;SDS011;3155;49.940;8.450;2023-09-07T09:47:03;790.10;;;720.30;;
6243;SDS011;3155;49.940;8.450;2023-09-07T09:49:30;519.20;;;475.35;;
6243;SDS011;3155;49.940;8.450;2023-09-07T09:51:57;1142.53;;;999.90;;
6243;SDS011;3155;49.940;8.450;2023-09-07T09:54:25;905.75;;;824.75;;
6243;SDS011;3155;49.940;8.450;2023-09-07T09:56:52;2.80;;;2.50;;
6243;SDS011;3155;49.940;8.450;2023-09-07T09:59:20;277.63;;;253.00;;
6243;SDS011;3155;49.940;8.450;2023-09-07T10:01:47;4.23;;;2.80;;
6243;SDS011;3155;49.940;8.450;2023-09-07T10:04:17;4.38;;;2.70;;
6243;SDS011;3155;49.940;8.450;2023-09-07T10:06:50;575.92;;;523.78;;
6243;SDS011;3155;49.940;8.450;2023-09-07T10:09:20;487.17;;;444.67;;
6243;SDS011;3155;49.940;8.450;2023-09-07T10:11:51;979.83;;;894.60;;
6243;SDS011;3155;49.940;8.450;2023-09-07T10:14:19;2.97;;;2.75;;
6243;SDS011;3155;49.940;8.450;2023-09-07T10:16:55;191.52;;;175.27;;
6243;SDS011;3155;49.940;8.450;2023-09-07T10:19:25;3.35;;;2.60;;
6243;SDS011;3155;49.940;8.450;2023-09-07T10:21:53;6.63;;;6.10;;
6243;SDS011;3155;49.940;8.450;2023-09-07T10:24:24;3.45;;;3.25;;
6243;SDS011;3155;49.940;8.450;2023-09-07T10:27:02;107.82;;;96.28;;
6243;SDS011;3155;49.940;8.450;2023-09-07T10:29:40;274.50;;;250.50;;
6243;SDS011;3155;49.940;8.450;2023-09-07T10:32:07;3.10;;;2.90;;
6243;SDS011;3155;49.940;8.450;2023-09-07T10:34:40;2.88;;;2.50;;
6243;SDS011;3155;49.940;8.450;2023-09-07T10:37:12;2.67;;;2.45;;
6243;SDS011;3155;49.940;8.450;2023-09-07T10:39:44;2.60;;;2.40;;
6243;SDS011;3155;49.940;8.450;2023-09-07T10:42:21;9.30;;;8.50;;
6243;SDS011;3155;49.940;8.450;2023-09-07T10:44:50;2.75;;;2.55;;
6243;SDS011;3155;49.940;8.450;2023-09-07T10:47:17;2.60;;;2.47;;
6243;SDS011;3155;49.940;8.450;2023-09-07T10:49:44;27.80;;;25.70;;
6243;SDS011;3155;49.940;8.450;2023-09-07T10:52:18;39.53;;;36.50;;
6243;SDS011;3155;49.940;8.450;2023-09-07T10:54:45;121.10;;;109.40;;
6243;SDS011;3155;49.940;8.450;2023-09-07T10:57:22;2.83;;;2.63;;
6243;SDS011;3155;49.940;8.450;2023-09-07T10:59:49;4.57;;;2.50;;
6243;SDS011;3155;49.940;8.450;2023-09-07T11:02:20;126.30;;;114.18;;
6243;SDS011;3155;49.940;8.450;2023-09-07T11:04:48;9.37;;;7.10;;
6243;SDS011;3155;49.940;8.450;2023-09-07T11:07:15;2.63;;;2.53;;
6243;SDS011;3155;49.940;8.450;2023-09-07T11:09:43;279.30;;;255.02;;
6243;SDS011;3155;49.940;8.450;2023-09-07T11:12:16;31.67;;;28.50;;
6243;SDS011;3155;49.940;8.450;2023-09-07T11:14:43;21.33;;;19.48;;
6243;SDS011;3155;49.940;8.450;2023-09-07T11:17:13;3.15;;;2.80;;
6243;SDS011;3155;49.940;8.450;2023-09-07T11:19:40;3.50;;;2.50;;
6243;SDS011;3155;49.940;8.450;2023-09-07T11:22:11;2.85;;;2.50;;
6243;SDS011;3155;49.940;8.450;2023-09-07T11:24:38;3.38;;;2.88;;
6243;SDS011;3155;49.940;8.450;2023-09-07T11:27:05;3.05;;;2.78;;
6243;SDS011;3155;49.940;8.450;2023-09-07T11:29:32;3.10;;;2.80;;
6243;SDS011;3155;49.940;8.450;2023-09-07T11:32:09;3.80;;;3.30;;
6243;SDS011;3155;49.940;8.450;2023-09-07T11:34:55;3.28;;;2.92;;
6243;SDS011;3155;49.940;8.450;2023-09-07T11:37:25;2.97;;;2.78;;
6243;SDS011;3155;49.940;8.450;2023-09-07T11:39:54;3.03;;;2.83;;
6243;SDS011;3155;49.940;8.450;2023-09-07T11:42:24;2.65;;;2.45;;
6243;SDS011;3155;49.940;8.450;2023-09-07T11:44:58;3.10;;;2.80;;
6243;SDS011;3155;49.940;8.450;2023-09-07T11:47:28;2.70;;;2.50;;
6243;SDS011;3155;49.940;8.450;2023-09-07T11:49:55;2.90;;;2.70;;
6243;SDS011;3155;49.940;8.450;2023-09-07T11:52:22;3.40;;;2.53;;
6243;SDS011;3155;49.940;8.450;2023-09-07T11:54:50;2.58;;;2.33;;
6243;SDS011;3155;49.940;8.450;2023-09-07T11:57:17;2.88;;;2.67;;
6243;SDS011;3155;49.940;8.450;2023-09-07T11:59:44;2.88;;;2.60;;
6243;SDS011;3155;49.940;8.450;2023-09-07T12:02:24;3.00;;;2.80;;
6243;SDS011;3155;49.940;8.450;2023-09-07T12:04:53;2.90;;;2.70;;
6243;SDS011;3155;49.940;8.450;2023-09-07T12:07:23;3.00;;;2.65;;
6243;SDS011;3155;49.940;8.450;2023-09-07T12:09:51;54.42;;;47.85;;
6243;SDS011;3155;49.940;8.450;2023-09-07T12:12:23;146.70;;;133.18;;
6243;SDS011;3155;49.940;8.450;2023-09-07T12:14:50;3.17;;;2.40;;
6243;SDS011;3155;49.940;8.450;2023-09-07T12:17:18;2.65;;;2.45;;
6243;SDS011;3155;49.940;8.450;2023-09-07T12:19:46;3.10;;;2.80;;
6243;SDS011;3155;49.940;8.450;2023-09-07T12:22:13;3.85;;;2.47;;
6243;SDS011;3155;49.940;8.450;2023-09-07T12:24:43;3.60;;;2.85;;
6243;SDS011;3155;49.940;8.450;2023-09-07T12:27:27;3.00;;;2.90;;
6243;SDS011;3155;49.940;8.450;2023-09-07T12:30:05;2.58;;;2.42;;
6243;SDS011;3155;49.940;8.450;2023-09-07T12:32:39;8.75;;;7.90;;
6243;SDS011;3155;49.940;8.450;2023-09-07T12:35:06;100.33;;;91.13;;
6243;SDS011;3155;49.940;8.450;2023-09-07T12:37:36;3.00;;;2.72;;
6243;SDS011;3155;49.940;8.450;2023-09-07T12:40:06;3.00;;;2.80;;
6243;SDS011;3155;49.940;8.450;2023-09-07T12:42:39;5.22;;;4.78;;
6243;SDS011;3155;49.940;8.450;2023-09-07T12:45:10;4.63;;;4.13;;
6243;SDS011;3155;49.940;8.450;2023-09-07T12:47:38;3.92;;;2.63;;
6243;SDS011;3155;49.940;8.450;2023-09-07T12:50:06;2.83;;;2.38;;
6243;SDS011;3155;49.940;8.450;2023-09-07T12:52:34;2.55;;;2.35;;
6243;SDS011;3155;49.940;8.450;2023-09-07T12:55:05;3.47;;;2.50;;
6243;SDS011;3155;49.940;8.450;2023-09-07T12:57:34;13.63;;;11.15;;
6243;SDS011;3155;49.940;8.450;2023-09-07T13:00:03;420.17;;;383.33;;
6243;SDS011;3155;49.940;8.450;2023-09-07T13:02:32;876.25;;;798.50;;
6243;SDS011;3155;49.940;8.450;2023-09-07T13:04:59;98.10;;;89.30;;
6243;SDS011;3155;49.940;8.450;2023-09-07T13:07:26;3.50;;;3.20;;
6243;SDS011;3155;49.940;8.450;2023-09-07T13:09:54;3.97;;;3.67;;
6243;SDS011;3155;49.940;8.450;2023-09-07T13:12:21;2.93;;;2.70;;
6243;SDS011;3155;49.940;8.450;2023-09-07T13:14:48;2.55;;;2.33;;
6243;SDS011;3155;49.940;8.450;2023-09-07T13:17:15;2.70;;;2.60;;
6243;SDS011;3155;49.940;8.450;2023-09-07T13:19:43;3.72;;;2.45;;
6243;SDS011;3155;49.940;8.450;2023-09-07T13:22:10;3.03;;;2.88;;
6243;SDS011;3155;49.940;8.450;2023-09-07T13:24:37;2.73;;;2.53;;
6243;SDS011;3155;49.940;8.450;2023-09-07T13:27:05;2.67;;;2.47;;
6243;SDS011;3155;49.940;8.450;2023-09-07T13:29:32;2.50;;;2.40;;
6243;SDS011;3155;49.940;8.450;2023-09-07T13:32:00;3.60;;;2.42;;
6243;SDS011;3155;49.940;8.450;2023-09-07T13:34:27;3.93;;;2.60;;
6243;SDS011;3155;49.940;8.450;2023-09-07T13:36:54;2.80;;;2.60;;
6243;SDS011;3155;49.940;8.450;2023-09-07T13:39:22;6.50;;;6.03;;
6243;SDS011;3155;49.940;8.450;2023-09-07T13:41:49;3.30;;;3.10;;
6243;SDS011;3155;49.940;8.450;2023-09-07T13:44:17;3.53;;;3.23;;
6243;SDS011;3155;49.940;8.450;2023-09-07T13:46:44;2.92;;;2.72;;
6243;SDS011;3155;49.940;8.450;2023-09-07T13:49:11;3.47;;;3.17;;
6243;SDS011;3155;49.940;8.450;2023-09-07T13:51:39;2.42;;;2.33;;
6243;SDS011;3155;49.940;8.450;2023-09-07T13:54:07;3.25;;;2.47;;
6243;SDS011;3155;49.940;8.450;2023-09-07T13:56:35;10.00;;;9.10;;
6243;SDS011;3155;49.940;8.450;2023-09-07T13:59:02;4.20;;;2.67;;
6243;SDS011;3155;49.940;8.450;2023-09-07T14:01:30;10.10;;;9.18;;
6243;SDS011;3155;49.940;8.450;2023-09-07T14:03:58;4.32;;;2.70;;
6243;SDS011;3155;49.940;8.450;2023-09-07T14:06:28;2.85;;;2.60;;
6243;SDS011;3155;49.940;8.450;2023-09-07T14:08:55;75.00;;;68.15;;
6243;SDS011;3155;49.940;8.450;2023-09-07T14:11:22;17.48;;;14.75;;
6243;SDS011;3155;49.940;8.450;2023-09-07T14:13:50;3.92;;;2.47;;
6243;SDS011;3155;49.940;8.450;2023-09-07T14:16:21;4.45;;;2.47;;
6243;SDS011;3155;49.940;8.450;2023-09-07T14:18:49;2.45;;;2.35;;
6243;SDS011;3155;49.940;8.450;2023-09-07T14:21:17;2.92;;;2.70;;
6243;SDS011;3155;49.940;8.450;2023-09-07T14:23:44;2.67;;;2.40;;
6243;SDS011;3155;49.940;8.450;2023-09-07T14:26:14;4.35;;;2.95;;
6243;SDS011;3155;49.940;8.450;2023-09-07T14:28:44;466.60;;;423.90;;
6243;SDS011;3155;49.940;8.450;2023-09-07T14:31:11;17.63;;;16.25;;
6243;SDS011;3155;49.940;8.450;2023-09-07T14:33:39;7.05;;;4.72;;
6243;SDS011;3155;49.940;8.450;2023-09-07T14:36:08;3.38;;;2.40;;
6243;SDS011;3155;49.940;8.450;2023-09-07T14:38:35;2.70;;;2.50;;
6243;SDS011;3155;49.940;8.450;2023-09-07T14:41:07;3.22;;;2.95;;
6243;SDS011;3155;49.940;8.450;2023-09-07T14:43:38;2.60;;;2.50;;
6243;SDS011;3155;49.940;8.450;2023-09-07T14:46:05;2.78;;;2.58;;
6243;SDS011;3155;49.940;8.450;2023-09-07T14:48:32;3.55;;;3.25;;
6243;SDS011;3155;49.940;8.450;2023-09-07T14:50:59;3.25;;;2.90;;